Time;durP1;ratioP1;P1;durP2;ratioP2;P2;SDS_P1;SDS_P2;PMS_P1;PMS_P2;Temp;Humidity;BMP_temperature;BMP_pressure;BME280_temperature;BME280_humidity;BME280_pressure;Samples;Min_cycle;Max_cycle;Signal;HPM_P1;HPM_P2
2022/10/15 00:00:06;;;;;;;1.95;1.02;;;;;;;11.48;100.00;95421.72;1039102;28;20093;-72
2022/10/15 00:00:37;;;;;;;1.65;1.08;;;;;;;11.49;100.00;95418.78;1034854;28;20527;-72
2022/10/15 00:01:12;;;;;;;1.00;0.80;;;;;;;11.45;100.00;95417.78;1034718;28;20037;-72
2022/10/15 00:01:43;;;;;;;1.80;0.93;;;;;;;11.46;100.00;95423.81;1027591;28;20478;-72
2022/10/15 00:02:13;;;;;;;1.38;0.82;;;;;;;11.51;100.00;95429.81;1026722;28;20273;-72
2022/10/15 00:02:44;;;;;;;1.27;0.73;;;;;;;11.52;100.00;95427.97;1022888;29;20034;-71
2022/10/15 00:03:14;;;;;;;4.88;0.90;;;;;;;11.47;100.00;95431.44;1022747;29;20043;-72
2022/10/15 00:03:45;;;;;;;1.00;0.65;;;;;;;11.49;100.00;95418.78;1026765;28;20054;-72
2022/10/15 00:04:15;;;;;;;0.93;0.82;;;;;;;11.52;100.00;95423.50;1026941;28;20031;-72
2022/10/15 00:04:47;;;;;;;3.67;1.10;;;;;;;11.52;100.00;95431.38;1030947;28;20026;-72
2022/10/15 00:05:17;;;;;;;5.05;1.15;;;;;;;11.52;100.00;95420.88;1030541;28;20517;-72
2022/10/15 00:05:47;;;;;;;1.67;0.90;;;;;;;11.51;100.00;95429.03;1026179;28;20315;-73
2022/10/15 00:06:19;;;;;;;2.30;0.77;;;;;;;11.50;100.00;95422.19;1026821;28;20120;-72
2022/10/15 00:06:49;;;;;;;1.50;0.82;;;;;;;11.48;100.00;95425.13;1022769;28;20101;-71
2022/10/15 00:07:20;;;;;;;3.30;0.98;;;;;;;11.49;100.00;95423.28;1023001;28;20813;-72
2022/10/15 00:07:51;;;;;;;1.27;0.93;;;;;;;11.49;100.00;95421.44;1027155;28;20030;-72
2022/10/15 00:08:21;;;;;;;1.67;0.88;;;;;;;11.50;100.00;95414.31;1026970;28;20030;-72
2022/10/15 00:08:52;;;;;;;1.77;0.80;;;;;;;11.49;100.00;95426.69;1030681;28;20084;-72
2022/10/15 00:09:22;;;;;;;0.82;0.65;;;;;;;11.49;100.00;95424.06;1026689;28;20035;-71
2022/10/15 00:09:53;;;;;;;0.73;0.52;;;;;;;11.49;100.00;95418.78;1027076;28;20226;-72
2022/10/15 00:10:23;;;;;;;4.78;1.10;;;;;;;11.50;100.00;95425.63;1030610;28;20045;-72
2022/10/15 00:10:53;;;;;;;1.08;0.80;;;;;;;11.50;100.00;95417.75;1022801;29;20160;-72
2022/10/15 00:11:25;;;;;;;1.50;0.90;;;;;;;11.50;100.00;95420.38;1022967;28;20031;-72
2022/10/15 00:11:55;;;;;;;1.70;0.73;;;;;;;11.51;100.00;95421.94;1022965;28;20546;-72
2022/10/15 00:12:25;;;;;;;1.20;1.08;;;;;;;11.50;100.00;95414.31;1031145;28;20265;-72
2022/10/15 00:12:56;;;;;;;0.95;0.65;;;;;;;11.50;100.00;95417.75;1034736;28;20034;-72
2022/10/15 00:13:26;;;;;;;5.43;1.13;;;;;;;11.50;100.00;95420.38;1033171;28;20025;-73
2022/10/15 00:13:58;;;;;;;1.50;0.70;;;;;;;11.49;100.00;95418.03;1030267;28;20077;-73
2022/10/15 00:14:28;;;;;;;0.85;0.68;;;;;;;11.44;100.00;95407.56;1031054;28;20830;-72
2022/10/15 00:14:59;;;;;;;2.08;0.77;;;;;;;11.48;100.00;95417.25;1034703;28;20033;-72
2022/10/15 00:15:29;;;;;;;1.30;0.80;;;;;;;11.47;100.00;95418.31;1030257;28;20014;-73
2022/10/15 00:16:00;;;;;;;1.23;0.75;;;;;;;11.49;100.00;95412.75;1034604;28;20038;-72
2022/10/15 00:16:31;;;;;;;1.65;0.68;;;;;;;11.49;100.00;95413.53;1038960;28;20018;-72
2022/10/15 00:17:02;;;;;;;0.95;0.70;;;;;;;11.49;100.00;95410.91;1030793;28;20018;-72
2022/10/15 00:17:33;;;;;;;1.70;0.82;;;;;;;11.49;100.00;95416.16;1030755;28;20603;-72
2022/10/15 00:18:06;;;;;;;1.13;0.85;;;;;;;11.46;100.00;95405.44;1026597;28;20031;-72
2022/10/15 00:18:37;;;;;;;1.17;0.80;;;;;;;11.49;100.00;95413.53;1031340;28;20022;-71
2022/10/15 00:19:08;;;;;;;1.92;0.57;;;;;;;11.49;100.00;95413.53;1032776;28;20025;-72
2022/10/15 00:19:38;;;;;;;0.90;0.65;;;;;;;11.50;100.00;95420.38;1035284;28;20034;-72
2022/10/15 00:20:09;;;;;;;1.33;0.60;;;;;;;11.44;100.00;95408.34;1030565;28;20026;-73
2022/10/15 00:20:40;;;;;;;1.73;0.73;;;;;;;11.49;100.00;95408.28;1026477;28;20030;-72
2022/10/15 00:21:13;;;;;;;1.00;0.70;;;;;;;11.48;100.00;95406.72;1026860;28;20262;-72
2022/10/15 00:21:43;;;;;;;0.60;0.60;;;;;;;11.49;100.00;95418.78;1026985;28;20037;-72
2022/10/15 00:22:16;;;;;;;0.60;0.60;;;;;;;11.47;100.00;95415.69;1032229;28;20501;-72
2022/10/15 00:22:47;;;;;;;1.20;0.63;;;;;;;11.48;100.00;95422.50;1042767;28;20543;-71
2022/10/15 00:23:17;;;;;;;1.35;0.70;;;;;;;11.49;100.00;95418.78;1035438;28;20025;-72
2022/10/15 00:23:48;;;;;;;1.00;0.68;;;;;;;11.48;100.00;95419.09;1038897;28;20516;-72
2022/10/15 00:24:18;;;;;;;1.08;0.63;;;;;;;11.49;100.00;95420.66;1034758;28;20272;-73
2022/10/15 00:24:49;;;;;;;1.83;0.80;;;;;;;11.49;100.00;95410.91;1027106;28;20023;-72
2022/10/15 00:25:19;;;;;;;0.60;0.55;;;;;;;11.49;100.00;95410.91;1030200;28;20034;-72
2022/10/15 00:25:59;;;;;;;0.98;0.40;;;;;;;11.50;100.00;95415.13;1030175;28;20026;-73
2022/10/15 00:26:29;;;;;;;2.35;0.60;;;;;;;11.50;100.00;95415.13;1029196;28;20046;-72
2022/10/15 00:27:00;;;;;;;1.35;0.80;;;;;;;11.50;100.00;95409.06;1026422;28;20801;-72
2022/10/15 00:27:30;;;;;;;0.90;0.70;;;;;;;11.50;100.00;95412.50;1026526;28;20585;-72
2022/10/15 00:28:00;;;;;;;1.13;0.60;;;;;;;11.48;100.00;95405.94;1030578;28;20029;-72
2022/10/15 00:28:31;;;;;;;0.70;0.68;;;;;;;11.50;100.00;95407.25;1030561;28;20026;-73
2022/10/15 00:29:02;;;;;;;1.00;0.70;;;;;;;11.51;100.00;95413.28;1026394;28;20027;-73
2022/10/15 00:29:33;;;;;;;1.70;1.05;;;;;;;11.38;100.00;95391.06;1026605;28;20402;-72
2022/10/15 00:30:04;;;;;;;0.95;0.75;;;;;;;11.47;100.00;95402.53;1030936;28;20018;-72
2022/10/15 00:30:35;;;;;;;1.83;0.47;;;;;;;11.50;100.00;95403.81;1035053;28;20030;-72
2022/10/15 00:31:10;;;;;;;0.68;0.60;;;;;;;11.51;100.00;95411.44;1038686;28;20511;-72
2022/10/15 00:31:40;;;;;;;0.73;0.40;;;;;;;11.46;100.00;95402.81;1030865;28;20014;-71
2022/10/15 00:32:11;;;;;;;0.90;0.70;;;;;;;11.49;100.00;95408.28;1034813;28;20721;-73
2022/10/15 00:32:41;;;;;;;1.42;0.85;;;;;;;11.50;100.00;95402.00;1030218;28;20030;-72
2022/10/15 00:33:12;;;;;;;2.35;0.60;;;;;;;11.49;100.00;95397.78;1035226;28;20030;-72
2022/10/15 00:33:42;;;;;;;0.52;0.50;;;;;;;11.50;100.00;95398.56;1034774;28;20030;-72
2022/10/15 00:34:13;;;;;;;1.42;0.65;;;;;;;11.49;100.00;95405.66;1026693;28;20061;-72
2022/10/15 00:34:43;;;;;;;1.10;0.75;;;;;;;11.48;100.00;95395.44;1030384;28;20228;-72
2022/10/15 00:35:14;;;;;;;0.75;0.63;;;;;;;11.44;100.00;95389.19;1022717;28;20039;-72
2022/10/15 00:35:44;;;;;;;4.28;0.68;;;;;;;11.42;100.00;95386.03;1029921;28;20029;-72
2022/10/15 00:36:16;;;;;;;0.57;0.47;;;;;;;11.33;100.00;95384.00;1030733;28;20617;-72
2022/10/15 00:36:48;;;;;;;2.13;0.90;;;;;;;11.43;100.00;95398.88;1030264;28;20026;-72
2022/10/15 00:37:20;;;;;;;0.88;0.60;;;;;;;11.47;100.00;95405.16;1022616;29;20039;-72
2022/10/15 00:37:50;;;;;;;1.67;0.88;;;;;;;11.49;100.00;95400.41;1023034;28;20357;-72
2022/10/15 00:38:21;;;;;;;1.35;1.02;;;;;;;11.49;100.00;95402.25;1026607;28;20039;-72
2022/10/15 00:38:51;;;;;;;1.40;0.57;;;;;;;11.48;100.00;95401.47;1022832;28;20027;-72
2022/10/15 00:39:22;;;;;;;0.68;0.60;;;;;;;11.49;100.00;95403.03;1032398;28;20026;-72
2022/10/15 00:39:52;;;;;;;1.15;1.05;;;;;;;11.49;100.00;95391.75;1030832;28;20144;-72
2022/10/15 00:40:23;;;;;;;2.40;0.68;;;;;;;11.49;100.00;95403.03;1026433;28;20034;-72
2022/10/15 00:40:53;;;;;;;1.25;0.75;;;;;;;11.46;100.00;95395.69;1026151;28;20498;-72
2022/10/15 00:41:31;;;;;;;0.70;0.60;;;;;;;11.47;100.00;95399.91;1022592;29;20062;-72
2022/10/15 00:42:02;;;;;;;1.30;0.90;;;;;;;11.48;100.00;95390.19;1021822;29;20745;-72
2022/10/15 00:42:33;;;;;;;0.70;0.68;;;;;;;11.49;100.00;95389.91;1025564;28;20269;-72
2022/10/15 00:43:07;;;;;;;1.40;0.57;;;;;;;11.48;100.00;95396.22;1027476;28;20034;-72
2022/10/15 00:43:38;;;;;;;2.40;0.95;;;;;;;11.48;100.00;95396.22;1030715;28;20034;-72
2022/10/15 00:44:20;;;;;;;1.60;0.82;;;;;;;11.48;100.00;95400.69;1031368;28;20511;-72
2022/10/15 00:44:53;;;;;;;0.57;0.50;;;;;;;11.46;100.00;95392.28;1030566;28;20030;-73
2022/10/15 00:45:23;;;;;;;0.55;0.47;;;;;;;11.48;100.00;95396.22;1030292;28;20064;-73
2022/10/15 00:45:54;;;;;;;2.67;0.63;;;;;;;11.49;100.00;95392.53;1030413;28;20665;-72
2022/10/15 00:46:36;;;;;;;1.42;0.95;;;;;;;11.48;100.00;95393.59;1026352;28;20239;-72
2022/10/15 00:47:16;;;;;;;0.57;0.50;;;;;;;11.47;100.00;95392.03;1028076;28;20046;-72
2022/10/15 00:47:47;;;;;;;3.47;0.70;;;;;;;11.39;100.00;95382.09;1033301;28;20037;-72
2022/10/15 00:48:17;;;;;;;0.80;0.52;;;;;;;11.43;100.00;95380.47;1028757;28;20039;-72
2022/10/15 00:48:50;;;;;;;0.82;0.57;;;;;;;11.43;100.00;95379.72;1026483;28;20297;-73
2022/10/15 00:49:27;;;;;;;2.78;1.00;;;;;;;11.48;100.00;95388.34;1018864;28;20075;-72
2022/10/15 00:50:00;;;;;;;1.17;0.68;;;;;;;11.40;100.00;95375.00;1023967;28;20273;-72
2022/10/15 00:50:30;;;;;;;0.50;0.50;;;;;;;11.48;100.00;95390.19;1022767;29;20122;-73
2022/10/15 00:51:01;;;;;;;0.70;0.60;;;;;;;11.47;100.00;95389.41;1022560;29;20038;-72
2022/10/15 00:51:35;;;;;;;1.08;0.70;;;;;;;11.45;100.00;95386.25;1022354;29;20034;-72
2022/10/15 00:52:08;;;;;;;1.50;1.35;;;;;;;11.50;100.00;95394.13;1022504;29;20121;-72
2022/10/15 00:52:46;;;;;;;1.48;0.90;;;;;;;11.50;100.00;95388.84;1022525;29;20402;-73
2022/10/15 00:53:16;;;;;;;1.42;0.80;;;;;;;11.47;100.00;95383.38;1026415;28;20065;-72
2022/10/15 00:53:47;;;;;;;1.02;0.70;;;;;;;11.50;100.00;95388.84;1026663;28;20078;-72
2022/10/15 00:54:17;;;;;;;1.65;0.95;;;;;;;11.51;100.00;95390.41;1026538;28;20593;-72
2022/10/15 00:54:57;;;;;;;1.70;0.80;;;;;;;11.49;100.00;95387.28;1030357;28;20030;-72
2022/10/15 00:55:29;;;;;;;0.60;0.60;;;;;;;11.50;100.00;95382.78;1029550;28;20113;-72
2022/10/15 00:56:02;;;;;;;4.97;0.80;;;;;;;11.52;100.00;95388.56;1026197;28;20254;-71
2022/10/15 00:56:33;;;;;;;0.70;0.55;;;;;;;11.46;100.00;95377.31;1029772;28;20014;-72
2022/10/15 00:57:04;;;;;;;1.02;0.60;;;;;;;11.46;100.00;95382.56;1026413;28;20262;-72
2022/10/15 00:57:35;;;;;;;1.30;0.60;;;;;;;11.51;100.00;95387.00;1030474;28;20015;-73
2022/10/15 00:58:10;;;;;;;1.58;0.73;;;;;;;11.53;100.00;95392.75;1032504;28;20105;-72
2022/10/15 00:58:40;;;;;;;0.98;0.63;;;;;;;11.52;100.00;95384.09;1030527;28;20151;-71
2022/10/15 00:59:10;;;;;;;2.35;0.65;;;;;;;11.54;100.00;95384.59;1026667;28;20388;-72
2022/10/15 00:59:46;;;;;;;1.05;0.60;;;;;;;11.56;100.00;95392.19;1022488;29;20043;-72
2022/10/15 01:00:17;;;;;;;3.13;0.80;;;;;;;11.54;100.00;95383.84;1027483;28;20065;-72
2022/10/15 01:00:48;;;;;;;2.35;0.60;;;;;;;11.56;100.00;95387.72;1027324;28;20257;-72
2022/10/15 01:01:18;;;;;;;0.60;0.60;;;;;;;11.57;100.00;95388.53;1026632;28;20781;-72
2022/10/15 01:01:49;;;;;;;1.70;0.77;;;;;;;11.52;100.00;95376.22;1029606;28;20022;-73
2022/10/15 01:02:19;;;;;;;1.38;0.70;;;;;;;11.56;100.00;95385.09;1026461;28;20019;-71
2022/10/15 01:02:50;;;;;;;1.20;0.90;;;;;;;11.54;100.00;95379.34;1022763;29;20015;-72
2022/10/15 01:03:20;;;;;;;5.28;0.82;;;;;;;11.56;100.00;95376.44;1028391;28;20118;-72
2022/10/15 01:03:52;;;;;;;1.83;0.68;;;;;;;11.58;100.00;95384.84;1026197;28;20041;-72
2022/10/15 01:04:22;;;;;;;1.08;0.85;;;;;;;11.59;100.00;95385.63;1034226;28;20469;-72
2022/10/15 01:04:53;;;;;;;1.02;0.65;;;;;;;11.57;100.00;95384.06;1026397;28;20015;-72
2022/10/15 01:05:24;;;;;;;3.58;0.85;;;;;;;11.55;100.00;95380.13;1029852;28;20019;-72
2022/10/15 01:05:55;;;;;;;1.73;0.80;;;;;;;11.51;100.00;95368.63;1022391;29;20275;-72
2022/10/15 01:06:25;;;;;;;1.27;0.68;;;;;;;11.59;100.00;95380.34;1026275;28;20026;-72
2022/10/15 01:06:55;;;;;;;0.75;0.50;;;;;;;11.60;100.00;95381.91;1026527;28;20026;-72
2022/10/15 01:07:26;;;;;;;1.10;0.65;;;;;;;11.57;100.00;95381.44;1026232;28;20015;-72
2022/10/15 01:07:56;;;;;;;3.42;0.82;;;;;;;11.61;100.00;95379.03;1028621;28;20114;-72
2022/10/15 01:08:27;;;;;;;1.02;0.70;;;;;;;11.61;100.00;95384.28;1034595;28;20432;-72
2022/10/15 01:09:00;;;;;;;2.05;1.05;;;;;;;11.61;100.00;95381.66;1022563;29;20023;-72
2022/10/15 01:09:31;;;;;;;3.03;0.80;;;;;;;11.61;100.00;95378.25;1026375;28;20891;-72
2022/10/15 01:10:02;;;;;;;4.57;0.70;;;;;;;11.59;100.00;95370.63;1022793;29;20035;-72
2022/10/15 01:11:13;;;;;;;0.85;0.60;;;;;;;11.49;100.00;95354.97;1026612;28;20525;-72
2022/10/15 01:11:48;;;;;;;1.70;0.90;;;;;;;11.64;100.00;95380.31;1022539;29;20054;-72
2022/10/15 01:12:24;;;;;;;0.65;0.50;;;;;;;11.63;100.00;95381.38;1029538;28;20437;-72
2022/10/15 01:13:07;;;;;;;1.27;0.77;;;;;;;11.64;100.00;95380.31;1022588;28;20501;-72
2022/10/15 01:13:58;;;;;;;1.15;0.82;;;;;;;11.64;100.00;95372.44;1021061;29;20638;-72
2022/10/15 01:14:50;;;;;;;0.57;0.57;;;;;;;11.63;100.00;95379.50;1027408;28;20328;-72
2022/10/15 01:15:46;;;;;;;0.70;0.70;;;;;;;11.64;100.00;95375.06;1033483;28;20364;-71
2022/10/15 01:16:24;;;;;;;3.65;0.73;;;;;;;11.64;100.00;95375.84;1036520;28;20303;-72
2022/10/15 01:17:08;;;;;;;0.55;0.55;;;;;;;11.65;100.00;95371.38;1027141;28;20794;-72
2022/10/15 01:17:45;;;;;;;1.05;0.80;;;;;;;11.65;100.00;95368.75;1026443;28;20266;-71
2022/10/15 01:18:21;;;;;;;0.77;0.70;;;;;;;11.59;100.00;95367.22;1030361;28;20811;-72
2022/10/15 01:18:57;;;;;;;1.45;0.60;;;;;;;11.66;100.00;95375.56;1030740;28;21055;-72
2022/10/15 01:20:12;;;;;;;1.42;0.70;;;;;;;11.53;100.00;95359.38;1026496;28;20293;-72
2022/10/15 01:21:22;;;;;;;0.65;0.50;;;;;;;11.65;100.00;95368.75;1012065;29;20379;-72
2022/10/15 01:22:03;;;;;;;1.80;0.50;;;;;;;11.65;100.00;95374.00;1010681;29;20275;-73
2022/10/15 01:22:52;;;;;;;0.63;0.63;;;;;;;11.63;100.00;95370.84;1012202;29;20106;-72
2022/10/15 01:23:28;;;;;;;1.17;0.60;;;;;;;11.64;100.00;95373.22;1026214;28;20262;-72
2022/10/15 01:24:10;;;;;;;0.73;0.60;;;;;;;11.64;100.00;95373.22;1030810;28;20273;-72
2022/10/15 01:24:59;;;;;;;1.05;0.70;;;;;;;11.66;100.00;95375.56;1038744;28;20299;-72
2022/10/15 01:25:38;;;;;;;0.77;0.65;;;;;;;11.66;100.00;95371.09;1038302;28;20257;-72
2022/10/15 01:26:50;;;;;;;1.20;0.88;;;;;;;11.67;100.00;95370.03;1034863;28;20265;-72
2022/10/15 01:27:26;;;;;;;1.67;0.68;;;;;;;11.52;100.00;95343.91;1027454;28;20265;-72
2022/10/15 01:28:13;;;;;;;2.35;0.77;;;;;;;11.66;100.00;95357.16;1027769;28;20078;-72
2022/10/15 01:28:46;;;;;;;1.25;0.85;;;;;;;11.66;100.00;95360.56;1022704;29;20702;-71
2022/10/15 01:29:42;;;;;;;1.30;1.20;;;;;;;11.67;100.00;95359.53;1029102;28;20667;-72
2022/10/15 01:30:41;;;;;;;1.38;0.85;;;;;;;11.68;100.00;95357.69;1033102;28;20272;-72
2022/10/15 01:31:49;;;;;;;1.27;0.90;;;;;;;11.68;100.00;95363.72;1030884;28;20365;-73
2022/10/15 01:32:25;;;;;;;0.68;0.57;;;;;;;11.70;100.00;95366.06;1030860;28;20475;-72
2022/10/15 01:33:25;;;;;;;3.80;0.98;;;;;;;11.70;100.00;95360.78;1038252;28;20323;-72
2022/10/15 01:34:24;;;;;;;5.45;0.85;;;;;;;11.71;100.00;95362.38;1030819;28;20269;-72
2022/10/15 01:35:01;;;;;;;1.45;0.88;;;;;;;11.71;100.00;95357.13;1022347;28;20297;-72
2022/10/15 01:35:41;;;;;;;1.05;0.70;;;;;;;11.71;100.00;95362.38;1029613;28;20277;-71
2022/10/15 01:36:17;;;;;;;1.02;0.80;;;;;;;11.71;100.00;95363.16;1038808;28;20350;-73
2022/10/15 01:37:11;;;;;;;1.02;0.70;;;;;;;11.71;100.00;95360.53;1026751;28;20262;-73
2022/10/15 01:38:08;;;;;;;1.27;0.80;;;;;;;11.70;100.00;95350.28;1024078;28;20697;-72
2022/10/15 01:38:51;;;;;;;1.17;0.90;;;;;;;11.68;100.00;95349.78;1033556;28;20261;-73
2022/10/15 01:39:33;;;;;;;0.75;0.70;;;;;;;11.57;100.00;95335.97;1028012;28;20270;-73
2022/10/15 01:40:05;;;;;;;0.95;0.80;;;;;;;11.74;100.00;95361.81;1023179;29;20309;-72
2022/10/15 01:40:49;;;;;;;0.63;0.60;;;;;;;11.72;100.00;95353.44;1023069;29;20024;-72
2022/10/15 01:41:45;;;;;;;0.80;0.75;;;;;;;11.68;100.00;95344.53;1030907;28;20266;-72
2022/10/15 01:42:22;;;;;;;0.60;0.60;;;;;;;11.73;100.00;95344.47;1027946;28;20361;-72
2022/10/15 01:43:02;;;;;;;1.23;0.75;;;;;;;11.76;100.00;95357.06;1026114;28;20273;-72
2022/10/15 01:43:44;;;;;;;1.60;1.25;;;;;;;11.75;100.00;95352.88;1027158;28;20298;-73
2022/10/15 01:44:20;;;;;;;0.82;0.68;;;;;;;11.75;100.00;95353.66;1030878;28;20282;-73
2022/10/15 01:44:53;;;;;;;1.00;0.70;;;;;;;11.69;100.00;95338.22;1023111;29;20342;-73
2022/10/15 01:45:36;;;;;;;1.13;0.60;;;;;;;11.75;100.00;95352.88;1022308;29;20270;-73
2022/10/15 01:46:13;;;;;;;0.75;0.50;;;;;;;11.75;100.00;95351.03;1022764;29;20718;-73
2022/10/15 01:46:58;;;;;;;0.80;0.60;;;;;;;11.77;100.00;95345.50;1023109;28;20262;-73
2022/10/15 01:47:32;;;;;;;3.67;0.80;;;;;;;11.77;100.00;95351.53;1030996;28;20213;-72
2022/10/15 01:48:05;;;;;;;0.95;0.70;;;;;;;11.77;100.00;95351.53;1030846;28;20268;-73
2022/10/15 01:48:36;;;;;;;1.15;0.55;;;;;;;11.75;100.00;95342.34;1031038;28;20260;-73
2022/10/15 01:49:06;;;;;;;0.93;0.50;;;;;;;11.76;100.00;95341.28;1030968;28;20269;-73
2022/10/15 01:49:39;;;;;;;1.02;0.70;;;;;;;11.80;100.00;95348.34;1026906;28;20034;-72
2022/10/15 01:50:10;;;;;;;2.20;0.90;;;;;;;11.80;100.00;95348.34;1022896;29;20028;-73
2022/10/15 01:50:45;;;;;;;0.80;0.73;;;;;;;11.78;100.00;95347.84;1027067;28;20625;-72
2022/10/15 01:51:16;;;;;;;0.68;0.65;;;;;;;11.79;100.00;95344.13;1030839;28;20022;-73
2022/10/15 01:51:46;;;;;;;1.00;0.63;;;;;;;11.80;100.00;95344.91;1026651;28;20030;-72
2022/10/15 01:52:28;;;;;;;0.75;0.70;;;;;;;11.83;100.00;95341.72;1030946;28;20022;-72
2022/10/15 01:52:59;;;;;;;2.05;0.60;;;;;;;11.82;100.00;95342.81;1030861;28;20050;-72
2022/10/15 01:53:33;;;;;;;0.60;0.50;;;;;;;11.80;100.00;95342.28;1023757;28;20275;-72
2022/10/15 01:54:04;;;;;;;1.27;0.70;;;;;;;11.80;100.00;95339.66;1023670;29;20546;-73
2022/10/15 01:54:35;;;;;;;1.25;0.70;;;;;;;11.78;100.00;95334.69;1021093;29;20019;-72
2022/10/15 01:55:06;;;;;;;1.67;0.60;;;;;;;11.82;100.00;95342.03;1023663;29;20023;-72
2022/10/15 01:55:36;;;;;;;1.50;0.90;;;;;;;11.76;100.00;95334.19;1030894;28;20036;-71
2022/10/15 01:56:08;;;;;;;1.70;0.70;;;;;;;11.83;100.00;95333.84;1027523;28;20026;-72
2022/10/15 01:56:39;;;;;;;0.95;0.60;;;;;;;11.84;100.00;95338.09;1027691;28;20034;-71
2022/10/15 01:57:09;;;;;;;0.70;0.60;;;;;;;11.82;100.00;95342.03;1030166;28;20732;-73
2022/10/15 01:57:41;;;;;;;1.25;0.90;;;;;;;11.84;100.00;95329.38;1031811;28;20583;-71
2022/10/15 01:58:12;;;;;;;0.60;0.50;;;;;;;11.80;100.00;95329.16;1030559;28;20797;-72
2022/10/15 01:58:42;;;;;;;1.25;0.70;;;;;;;11.85;100.00;95337.03;1023487;29;20062;-72
2022/10/15 01:59:13;;;;;;;0.77;0.68;;;;;;;11.83;100.00;95333.06;1024149;28;20031;-72
2022/10/15 01:59:44;;;;;;;2.30;0.63;;;;;;;11.84;100.00;95335.47;1031269;28;20061;-72
2022/10/15 02:00:15;;;;;;;1.02;0.85;;;;;;;11.79;100.00;95324.97;1031734;28;20073;-72
2022/10/15 02:00:45;;;;;;;1.33;0.47;;;;;;;11.84;100.00;95330.19;1027720;28;20037;-72
2022/10/15 02:01:16;;;;;;;4.30;0.70;;;;;;;11.84;100.00;95335.47;1032291;28;20588;-72
2022/10/15 02:01:46;;;;;;;0.77;0.60;;;;;;;11.86;100.00;95338.56;1035698;28;20033;-73
2022/10/15 02:02:16;;;;;;;0.70;0.70;;;;;;;11.87;100.00;95334.09;1031604;28;20038;-73
2022/10/15 02:02:47;;;;;;;1.27;0.50;;;;;;;11.85;100.00;95330.97;1027634;28;20105;-72
2022/10/15 02:03:17;;;;;;;0.98;0.68;;;;;;;11.88;100.00;95330.41;1027823;28;20035;-73
2022/10/15 02:03:49;;;;;;;1.45;1.15;;;;;;;11.83;100.00;95328.59;1030689;28;20548;-72
2022/10/15 02:04:25;;;;;;;1.45;0.60;;;;;;;11.78;100.00;95318.16;1023602;28;20786;-72
2022/10/15 02:04:55;;;;;;;1.02;0.45;;;;;;;11.85;100.00;95323.09;1027749;28;20274;-72
2022/10/15 02:05:33;;;;;;;0.90;0.52;;;;;;;11.88;100.00;95331.19;1031011;28;20253;-72
2022/10/15 02:06:08;;;;;;;1.77;0.63;;;;;;;11.84;100.00;95324.94;1027400;28;20081;-72
2022/10/15 02:06:41;;;;;;;3.97;0.98;;;;;;;11.87;100.00;95323.56;1035544;28;20124;-72
2022/10/15 02:07:50;;;;;;;0.40;0.40;;;;;;;11.92;100.00;95332.19;1034590;28;20030;-73
2022/10/15 02:08:30;;;;;;;0.50;0.40;;;;;;;11.91;100.00;95325.38;1036959;28;20030;-73
2022/10/15 02:09:11;;;;;;;1.13;0.38;;;;;;;11.87;100.00;95327.00;1040123;28;20894;-72
2022/10/15 02:10:00;;;;;;;0.52;0.38;;;;;;;11.92;100.00;95328.78;1039616;28;20021;-72
2022/10/15 02:10:43;;;;;;;0.52;0.50;;;;;;;11.91;100.00;95330.66;1035393;28;20268;-72
2022/10/15 02:11:15;;;;;;;0.70;0.40;;;;;;;11.92;100.00;95332.19;1035758;28;20277;-72
2022/10/15 02:12:00;;;;;;;0.47;0.40;;;;;;;11.89;100.00;95316.22;1031568;28;20329;-72
2022/10/15 02:12:34;;;;;;;1.73;0.50;;;;;;;11.91;100.00;95329.88;1023356;29;20377;-72
2022/10/15 02:13:20;;;;;;;0.52;0.50;;;;;;;11.92;100.00;95326.94;1027450;28;20325;-73
2022/10/15 02:14:03;;;;;;;0.50;0.50;;;;;;;11.93;100.00;95325.88;1031651;28;20254;-72
2022/10/15 02:14:42;;;;;;;1.05;0.55;;;;;;;11.94;100.00;95322.19;1032077;28;20269;-73
2022/10/15 02:15:22;;;;;;;1.48;0.50;;;;;;;11.97;100.00;95328.72;1032054;28;20299;-73
2022/10/15 02:16:01;;;;;;;0.65;0.52;;;;;;;12.00;100.00;95334.22;1031870;28;20494;-72
2022/10/15 02:17:00;;;;;;;0.30;0.28;;;;;;;12.01;100.00;95330.53;1035400;28;20104;-72
2022/10/15 02:17:44;;;;;;;0.90;0.30;;;;;;;12.01;100.00;95327.91;1044172;28;20458;-73
2022/10/15 02:18:45;;;;;;;1.23;0.55;;;;;;;12.00;100.00;95328.97;1037487;28;20304;-73
2022/10/15 02:19:31;;;;;;;0.68;0.43;;;;;;;12.00;100.00;95321.09;1028243;28;20069;-73
2022/10/15 02:20:17;;;;;;;0.40;0.40;;;;;;;12.02;100.00;95321.56;1033301;28;20721;-72
2022/10/15 02:20:54;;;;;;;1.55;0.50;;;;;;;12.06;100.00;95326.25;1027426;28;20023;-73
2022/10/15 02:21:47;;;;;;;0.50;0.35;;;;;;;12.06;100.00;95323.63;1027602;28;20274;-74
2022/10/15 02:22:40;;;;;;;0.32;0.22;;;;;;;12.00;100.00;95313.19;1022788;29;20270;-73
2022/10/15 02:23:19;;;;;;;0.95;0.45;;;;;;;12.00;100.00;95312.38;1017557;28;20812;-72
2022/10/15 02:24:05;;;;;;;0.38;0.30;;;;;;;12.00;100.00;95302.66;1023904;28;20031;-72
2022/10/15 02:24:39;;;;;;;1.30;0.40;;;;;;;12.03;100.00;95317.84;1031781;28;20270;-72
2022/10/15 02:25:13;;;;;;;0.40;0.40;;;;;;;12.07;100.00;95317.31;1035980;28;20268;-73
2022/10/15 02:25:43;;;;;;;0.63;0.50;;;;;;;12.06;100.00;95316.53;1030590;28;20061;-72
2022/10/15 02:26:14;;;;;;;0.40;0.40;;;;;;;12.05;100.00;95308.94;1024075;29;20076;-72
2022/10/15 02:26:44;;;;;;;0.40;0.30;;;;;;;12.09;100.00;95320.44;1026863;28;20031;-72
2022/10/15 02:27:15;;;;;;;0.50;0.40;;;;;;;12.05;100.00;95314.97;1024909;28;20716;-73
2022/10/15 02:27:46;;;;;;;0.32;0.30;;;;;;;12.10;100.00;95312.25;1029085;28;20029;-72
2022/10/15 02:28:17;;;;;;;0.52;0.40;;;;;;;12.10;100.00;95316.75;1031311;28;20497;-72
2022/10/15 02:28:50;;;;;;;0.60;0.40;;;;;;;12.11;100.00;95320.97;1035352;28;20025;-73
2022/10/15 02:29:22;;;;;;;0.50;0.30;;;;;;;11.97;100.00;95294.53;1031572;28;20523;-72
2022/10/15 02:29:52;;;;;;;1.13;0.38;;;;;;;12.11;100.00;95320.97;1027689;28;20023;-72
2022/10/15 02:30:23;;;;;;;0.45;0.45;;;;;;;12.13;100.00;95316.19;1031713;28;20023;-73
2022/10/15 02:30:54;;;;;;;0.93;0.30;;;;;;;12.11;100.00;95311.22;1035718;28;20125;-73
2022/10/15 02:31:25;;;;;;;2.35;0.30;;;;;;;12.13;100.00;95322.22;1027479;28;20026;-73
2022/10/15 02:31:55;;;;;;;0.85;0.30;;;;;;;12.16;100.00;95315.63;1031664;28;20053;-73
2022/10/15 02:32:26;;;;;;;0.30;0.30;;;;;;;12.14;100.00;95317.72;1031389;28;20034;-72
2022/10/15 02:32:57;;;;;;;1.20;0.50;;;;;;;12.14;100.00;95315.91;1023669;29;20020;-73
2022/10/15 02:33:28;;;;;;;1.13;0.28;;;;;;;12.15;100.00;95314.06;1023891;29;20094;-71
2022/10/15 02:34:02;;;;;;;0.88;0.35;;;;;;;12.16;100.00;95312.97;1031598;28;20034;-74
2022/10/15 02:34:32;;;;;;;0.20;0.20;;;;;;;12.15;100.00;95314.06;1032573;28;20018;-73
2022/10/15 02:35:04;;;;;;;0.20;0.20;;;;;;;12.16;100.00;95320.88;1027426;28;20023;-73
2022/10/15 02:35:34;;;;;;;2.22;0.20;;;;;;;12.18;100.00;95313.50;1017954;29;20038;-73
2022/10/15 02:36:05;;;;;;;0.30;0.30;;;;;;;12.15;100.00;95314.06;1031465;28;20022;-72
2022/10/15 02:36:37;;;;;;;0.63;0.30;;;;;;;12.19;100.00;95307.16;1031700;28;20026;-72
2022/10/15 02:37:08;;;;;;;0.43;0.38;;;;;;;12.17;100.00;95317.16;1031659;28;20474;-72
2022/10/15 02:37:40;;;;;;;0.20;0.20;;;;;;;12.18;100.00;95313.50;1031293;28;20030;-73
2022/10/15 02:38:11;;;;;;;0.93;0.32;;;;;;;12.17;100.00;95306.66;1031888;28;20157;-72
2022/10/15 02:38:42;;;;;;;0.15;0.15;;;;;;;12.20;100.00;95317.38;1031790;28;20027;-72
2022/10/15 02:39:15;;;;;;;0.50;0.50;;;;;;;12.19;100.00;95307.94;1028454;28;20026;-72
2022/10/15 02:39:45;;;;;;;1.55;0.63;;;;;;;12.20;100.00;95306.09;1032107;28;20148;-73
2022/10/15 02:40:16;;;;;;;0.40;0.20;;;;;;;12.23;100.00;95310.78;1036542;28;20161;-73
2022/10/15 02:40:46;;;;;;;0.52;0.20;;;;;;;12.24;100.00;95310.53;1036339;28;20030;-73
2022/10/15 02:41:17;;;;;;;1.05;0.30;;;;;;;12.20;100.00;95308.72;1035995;28;20026;-73
2022/10/15 02:41:47;;;;;;;0.52;0.20;;;;;;;12.24;100.00;95307.88;1031386;28;20030;-72
2022/10/15 02:42:18;;;;;;;0.73;0.28;;;;;;;12.26;100.00;95316.25;1022139;29;20515;-73
2022/10/15 02:42:49;;;;;;;0.73;0.30;;;;;;;12.24;100.00;95310.53;1035708;28;20032;-72
2022/10/15 02:43:20;;;;;;;0.20;0.20;;;;;;;12.23;100.00;95310.78;1032023;28;20030;-72